createdAt,value
2022-12-06T00:01:19.940Z,4.55
2022-12-06T00:03:52.516Z,4.56
2022-12-06T00:06:22.438Z,4.56
2022-12-06T00:08:51.167Z,4.56
2022-12-06T00:11:30.764Z,4.55
2022-12-06T00:14:00.767Z,4.56
2022-12-06T00:16:29.028Z,4.56
2022-12-06T00:18:57.589Z,4.57
2022-12-06T00:21:30.377Z,4.56
2022-12-06T00:24:07.759Z,4.55
2022-12-06T00:26:37.366Z,4.55
2022-12-06T00:29:05.527Z,4.55
2022-12-06T00:31:34.643Z,4.56
2022-12-06T00:34:03.646Z,4.57
2022-12-06T00:36:33.717Z,4.58
2022-12-06T00:39:07.007Z,4.59
2022-12-06T00:41:35.066Z,4.60
2022-12-06T00:44:02.684Z,4.62
2022-12-06T00:46:32.005Z,4.62
2022-12-06T00:49:01.330Z,4.62
2022-12-06T00:51:31.449Z,4.61
2022-12-06T00:53:59.362Z,4.59
2022-12-06T00:56:27.185Z,4.59
2022-12-06T00:58:54.967Z,4.58
2022-12-06T01:01:25.323Z,4.59
2022-12-06T01:03:55.882Z,4.58
2022-12-06T01:06:28.163Z,4.57
2022-12-06T01:09:00.382Z,4.56
2022-12-06T01:11:27.924Z,4.55
2022-12-06T01:13:56.795Z,4.54
2022-12-06T01:16:27.460Z,4.53
2022-12-06T01:18:56.582Z,4.52
2022-12-06T01:21:25.049Z,4.50
2022-12-06T01:23:54.314Z,4.50
2022-12-06T01:26:25.179Z,4.52
2022-12-06T01:28:53.328Z,4.51
2022-12-06T01:31:22.058Z,4.51
2022-12-06T01:33:49.447Z,4.50
2022-12-06T01:36:18.555Z,4.50
2022-12-06T01:38:49.700Z,4.47
2022-12-06T01:41:18.216Z,4.44
2022-12-06T01:43:45.926Z,4.42
2022-12-06T01:46:26.489Z,4.40
2022-12-06T01:49:10.058Z,4.39
2022-12-06T01:51:38.734Z,4.36
2022-12-06T01:54:09.984Z,4.34
2022-12-06T01:56:38.918Z,4.33
2022-12-06T01:59:08.443Z,4.34
2022-12-06T02:01:37.624Z,4.31
2022-12-06T02:04:06.796Z,4.30
2022-12-06T02:06:34.873Z,4.29
2022-12-06T02:09:05.364Z,4.27
2022-12-06T02:11:35.501Z,4.28
2022-12-06T02:14:05.891Z,4.27
2022-12-06T02:16:42.417Z,4.27
2022-12-06T02:19:21.989Z,4.25
2022-12-06T02:22:17.905Z,4.23
2022-12-06T02:25:13.040Z,4.24
2022-12-06T02:28:01.736Z,4.23
2022-12-06T02:31:01.044Z,4.24
2022-12-06T02:33:41.033Z,4.24
2022-12-06T02:36:23.087Z,4.24
2022-12-06T02:39:05.565Z,4.22
2022-12-06T02:41:44.054Z,4.24
2022-12-06T02:44:20.671Z,4.23
2022-12-06T02:46:51.104Z,4.21
2022-12-06T02:49:20.089Z,4.20
2022-12-06T02:51:49.318Z,4.18
2022-12-06T02:54:17.654Z,4.18
2022-12-06T02:56:44.823Z,4.16
2022-12-06T02:59:12.091Z,4.14
2022-12-06T03:01:45.132Z,4.14
2022-12-06T03:04:49.858Z,4.10
2022-12-06T03:07:35.502Z,4.09
2022-12-06T03:10:03.173Z,4.09
2022-12-06T03:12:39.613Z,4.10
2022-12-06T03:15:55.779Z,4.13
2022-12-06T03:18:43.825Z,4.14
2022-12-06T03:21:16.031Z,4.15
2022-12-06T03:23:50.019Z,4.16
2022-12-06T03:26:23.651Z,4.15
2022-12-06T03:28:56.214Z,4.12
2022-12-06T03:31:27.820Z,4.13
2022-12-06T03:34:08.429Z,4.14
2022-12-06T03:36:37.104Z,4.14
2022-12-06T03:39:08.266Z,4.15
2022-12-06T03:41:48.241Z,4.15
2022-12-06T03:44:15.699Z,4.15
2022-12-06T03:46:48.897Z,4.17
2022-12-06T03:49:22.649Z,4.18
2022-12-06T03:51:50.005Z,4.20
2022-12-06T03:54:17.473Z,4.20
2022-12-06T03:56:44.863Z,4.21
2022-12-06T03:59:12.568Z,4.22
2022-12-06T04:01:42.138Z,4.23
2022-12-06T04:04:10.208Z,4.23
2022-12-06T04:06:37.410Z,4.23
2022-12-06T04:09:23.222Z,4.23
2022-12-06T04:11:50.449Z,4.25
2022-12-06T04:14:17.927Z,4.26
2022-12-06T04:17:03.782Z,4.25
2022-12-06T04:19:31.067Z,4.26
2022-12-06T04:22:17.358Z,4.27
2022-12-06T04:24:44.554Z,4.29
2022-12-06T04:27:30.300Z,4.32
2022-12-06T04:30:16.085Z,4.33
2022-12-06T04:33:01.965Z,4.33
2022-12-06T04:35:47.550Z,4.33
2022-12-06T04:38:33.396Z,4.32
2022-12-06T04:41:00.611Z,4.34
2022-12-06T04:43:42.892Z,4.34
2022-12-06T04:46:15.641Z,4.32
2022-12-06T04:48:42.969Z,4.31
2022-12-06T04:51:13.282Z,4.30
2022-12-06T04:53:40.743Z,4.30
2022-12-06T04:56:08.134Z,4.29
2022-12-06T04:58:35.542Z,4.29
2022-12-06T05:01:02.927Z,4.27
2022-12-06T05:03:30.326Z,4.25
2022-12-06T05:05:57.656Z,4.25
2022-12-06T05:08:24.948Z,4.25
2022-12-06T05:10:52.445Z,4.24
2022-12-06T05:13:20.572Z,4.23
2022-12-06T05:15:55.169Z,4.22
2022-12-06T05:18:23.564Z,4.20
2022-12-06T05:20:51.759Z,4.17
2022-12-06T05:23:18.946Z,4.12
2022-12-06T05:25:46.363Z,4.10
2022-12-06T05:28:13.716Z,4.09
2022-12-06T05:30:41.022Z,4.07
2022-12-06T05:33:08.239Z,4.07
2022-12-06T05:35:35.521Z,4.06
2022-12-06T05:38:02.825Z,4.06
2022-12-06T05:40:30.068Z,4.05
2022-12-06T05:42:57.365Z,4.03
2022-12-06T05:45:24.565Z,3.98
2022-12-06T05:47:51.762Z,3.93
2022-12-06T05:50:18.991Z,3.89
2022-12-06T05:52:48.507Z,3.84
2022-12-06T05:55:15.669Z,3.78
2022-12-06T05:57:47.247Z,3.74
2022-12-06T06:00:15.618Z,3.71
2022-12-06T06:02:43.076Z,3.70
2022-12-06T06:05:10.537Z,3.65
2022-12-06T06:07:37.999Z,3.64
2022-12-06T06:10:07.380Z,3.62
2022-12-06T06:12:34.642Z,3.63
2022-12-06T06:15:02.108Z,3.64
2022-12-06T06:17:30.671Z,3.62
2022-12-06T06:19:58.053Z,3.62
2022-12-06T06:22:25.280Z,3.63
2022-12-06T06:24:52.812Z,3.62
2022-12-06T06:27:19.989Z,3.63
2022-12-06T06:29:47.252Z,3.64
2022-12-06T06:32:14.539Z,3.64
2022-12-06T06:34:41.771Z,3.65
2022-12-06T06:37:08.965Z,3.63
2022-12-06T06:39:36.243Z,3.63
2022-12-06T06:42:03.554Z,3.59
2022-12-06T06:44:30.761Z,3.57
2022-12-06T06:46:57.968Z,3.51
2022-12-06T06:49:25.256Z,3.47
2022-12-06T06:51:52.472Z,3.43
2022-12-06T06:54:20.189Z,3.37
2022-12-06T06:56:47.585Z,3.31
2022-12-06T06:59:14.821Z,3.26
2022-12-06T07:01:42.226Z,3.21
2022-12-06T07:04:09.510Z,3.15
2022-12-06T07:06:36.743Z,3.09
2022-12-06T07:09:04.484Z,3.02
2022-12-06T07:11:31.858Z,2.97
2022-12-06T07:13:59.190Z,2.87
2022-12-06T07:16:26.533Z,2.80
2022-12-06T07:18:54.009Z,2.72
2022-12-06T07:21:24.590Z,2.65
2022-12-06T07:23:51.913Z,2.60
2022-12-06T07:26:21.987Z,2.54
2022-12-06T07:28:50.814Z,2.48
2022-12-06T07:31:21.125Z,2.41
2022-12-06T07:33:51.658Z,2.35
2022-12-06T07:36:18.944Z,2.28
2022-12-06T07:38:51.454Z,2.22
2022-12-06T07:41:38.511Z,2.19
2022-12-06T07:44:33.411Z,2.14
2022-12-06T07:47:01.090Z,2.10
2022-12-06T07:49:28.554Z,2.06
2022-12-06T07:51:56.812Z,2.05
2022-12-06T07:54:24.832Z,2.05
2022-12-06T07:56:52.568Z,2.07
2022-12-06T07:59:19.886Z,2.10
2022-12-06T08:01:47.348Z,2.14
2022-12-06T08:04:14.665Z,2.16
2022-12-06T08:06:42.402Z,2.13
2022-12-06T08:09:10.099Z,2.15
2022-12-06T08:11:37.592Z,2.18
2022-12-06T08:14:05.063Z,2.21
2022-12-06T08:16:32.501Z,2.25
2022-12-06T08:19:01.328Z,2.30
2022-12-06T08:21:28.989Z,2.32
2022-12-06T08:23:56.544Z,2.38
2022-12-06T08:26:24.948Z,2.42
2022-12-06T08:28:52.537Z,2.46
2022-12-06T08:31:23.059Z,2.51
2022-12-06T08:33:50.511Z,2.57
2022-12-06T08:36:20.846Z,2.62
2022-12-06T08:38:48.886Z,2.66
2022-12-06T08:41:35.188Z,2.70
2022-12-06T08:44:03.608Z,2.71
2022-12-06T08:46:32.499Z,2.72
2022-12-06T08:49:00.235Z,2.75
2022-12-06T08:51:28.184Z,2.77
2022-12-06T08:53:56.675Z,2.79
2022-12-06T08:56:24.656Z,2.85
2022-12-06T08:58:56.418Z,2.91
2022-12-06T09:01:29.250Z,2.96
2022-12-06T09:04:01.943Z,3.01
2022-12-06T09:06:30.047Z,3.04
2022-12-06T09:08:58.606Z,3.05
2022-12-06T09:11:26.803Z,3.04
2022-12-06T09:13:54.138Z,3.08
2022-12-06T09:16:23.749Z,3.10
2022-12-06T09:18:51.724Z,3.09
2022-12-06T09:21:22.613Z,3.08
2022-12-06T09:23:50.640Z,3.09
2022-12-06T09:26:17.952Z,3.09
2022-12-06T09:28:49.624Z,3.09
2022-12-06T09:31:18.969Z,3.11
2022-12-06T09:33:47.165Z,3.15
2022-12-06T09:36:24.588Z,3.20
2022-12-06T09:39:00.144Z,3.25
2022-12-06T09:41:49.192Z,3.28
2022-12-06T09:44:38.318Z,3.35
2022-12-06T09:47:06.639Z,3.42
2022-12-06T09:49:52.339Z,3.51
2022-12-06T09:52:41.238Z,3.64
2022-12-06T09:55:16.498Z,3.76
2022-12-06T09:57:54.598Z,3.81
2022-12-06T10:00:23.947Z,3.90
2022-12-06T10:03:12.379Z,4.00
2022-12-06T10:06:01.561Z,4.08
2022-12-06T10:08:29.390Z,4.08
2022-12-06T10:11:15.498Z,4.08
2022-12-06T10:14:10.426Z,4.08
2022-12-06T10:17:00.194Z,4.10
2022-12-06T10:19:57.165Z,4.14
2022-12-06T10:22:46.582Z,4.15
2022-12-06T10:25:31.683Z,4.19
2022-12-06T10:28:37.253Z,4.23
2022-12-06T10:31:13.822Z,4.27
2022-12-06T10:34:01.181Z,4.33
2022-12-06T10:36:42.613Z,4.39
2022-12-06T10:39:20.235Z,4.45
2022-12-06T10:42:11.966Z,4.51
2022-12-06T10:44:51.306Z,4.56
2022-12-06T10:47:28.128Z,4.64
2022-12-06T10:50:14.498Z,4.72
2022-12-06T10:52:46.654Z,4.84
2022-12-06T10:55:36.681Z,4.95
2022-12-06T10:58:27.475Z,5.05
2022-12-06T11:00:59.274Z,5.18
2022-12-06T11:03:37.956Z,5.28
2022-12-06T11:06:26.139Z,5.34
2022-12-06T11:08:59.601Z,5.36
2022-12-06T11:11:35.349Z,5.37
2022-12-06T11:14:21.063Z,5.36
2022-12-06T11:17:00.934Z,5.35
2022-12-06T11:19:45.527Z,5.36
2022-12-06T11:22:37.393Z,5.39
2022-12-06T11:25:27.513Z,5.42
2022-12-06T11:28:05.853Z,5.41
2022-12-06T11:30:33.622Z,5.39
2022-12-06T11:33:03.327Z,5.41
2022-12-06T11:35:31.710Z,5.43
2022-12-06T11:38:03.507Z,5.42
2022-12-06T11:40:35.944Z,5.43
2022-12-06T11:43:07.719Z,5.46
2022-12-06T11:45:39.581Z,5.47
2022-12-06T11:48:22.724Z,5.41
2022-12-06T11:50:52.278Z,5.38
2022-12-06T11:53:24.499Z,5.38
2022-12-06T11:55:55.803Z,5.35
2022-12-06T11:58:41.783Z,5.34
2022-12-06T12:01:14.277Z,5.35
2022-12-06T12:03:47.396Z,5.38
2022-12-06T12:06:20.499Z,5.39
2022-12-06T12:09:02.163Z,5.40
2022-12-06T12:11:32.749Z,5.44
2022-12-06T12:14:03.604Z,5.45
2022-12-06T12:16:38.256Z,5.45
2022-12-06T12:20:13.058Z,5.47
2022-12-06T12:22:44.963Z,5.49
2022-12-06T12:25:22.635Z,5.49
2022-12-06T12:27:58.268Z,5.51
2022-12-06T12:30:37.203Z,5.53
2022-12-06T12:33:07.194Z,5.56
2022-12-06T12:35:42.248Z,5.58
2022-12-06T12:38:09.479Z,5.59
2022-12-06T12:40:38.357Z,5.62
2022-12-06T12:43:14.963Z,5.62
2022-12-06T12:46:07.079Z,5.64
2022-12-06T12:48:34.736Z,5.67
2022-12-06T12:51:05.823Z,5.69
2022-12-06T12:53:37.068Z,5.72
2022-12-06T12:56:18.796Z,5.73
2022-12-06T12:58:52.896Z,5.73
2022-12-06T13:01:42.415Z,5.72
2022-12-06T13:04:33.456Z,5.76
2022-12-06T13:07:11.351Z,5.78
2022-12-06T13:09:57.281Z,5.79
2022-12-06T13:12:59.794Z,5.77
2022-12-06T13:15:38.364Z,5.77
2022-12-06T13:18:13.622Z,5.76
2022-12-06T13:20:41.269Z,5.76
2022-12-06T13:23:13.951Z,5.74
2022-12-06T13:25:47.102Z,5.73
2022-12-06T13:28:19.141Z,5.72
2022-12-06T13:30:50.833Z,5.70
2022-12-06T13:33:27.241Z,5.70
2022-12-06T13:36:03.240Z,5.69
2022-12-06T13:38:41.662Z,5.67
2022-12-06T13:41:14.779Z,5.68
2022-12-06T13:43:45.778Z,5.68
2022-12-06T13:46:20.930Z,5.68
2022-12-06T13:48:53.357Z,5.69
2022-12-06T13:51:32.635Z,5.69
2022-12-06T13:54:02.894Z,5.68
2022-12-06T13:56:41.799Z,5.66
2022-12-06T13:59:11.993Z,5.63
2022-12-06T14:02:02.556Z,5.62
2022-12-06T14:07:04.033Z,5.63
2022-12-06T14:09:42.702Z,5.62
2022-12-06T14:12:18.014Z,5.63
2022-12-06T14:14:57.929Z,5.62
2022-12-06T14:18:02.212Z,5.62
2022-12-06T14:20:29.654Z,5.60
2022-12-06T14:22:57.337Z,5.58
2022-12-06T14:25:31.444Z,5.57
2022-12-06T14:28:06.262Z,5.57
2022-12-06T14:30:34.286Z,5.56
2022-12-06T14:33:01.771Z,5.55
2022-12-06T14:35:36.291Z,5.54
2022-12-06T14:38:21.617Z,5.52
2022-12-06T14:41:09.242Z,5.51
2022-12-06T14:43:37.514Z,5.49
2022-12-06T14:46:08.069Z,5.48
2022-12-06T14:48:55.628Z,5.46
2022-12-06T14:51:27.486Z,5.45
2022-12-06T14:53:56.786Z,5.44
2022-12-06T14:56:30.934Z,5.42
2022-12-06T14:59:00.669Z,5.39
2022-12-06T15:01:34.289Z,5.36
2022-12-06T15:04:09.438Z,5.34
2022-12-06T15:06:38.004Z,5.32
2022-12-06T15:09:14.171Z,5.29
2022-12-06T15:12:02.049Z,5.27
2022-12-06T15:14:47.315Z,5.25
2022-12-06T15:17:21.748Z,5.23
2022-12-06T15:19:51.880Z,5.21
2022-12-06T15:22:25.168Z,5.19
2022-12-06T15:24:56.613Z,5.17
2022-12-06T15:27:27.083Z,5.16
2022-12-06T15:29:55.147Z,5.12
2022-12-06T15:32:24.842Z,5.08
2022-12-06T15:34:52.115Z,5.04
2022-12-06T15:40:08.616Z,4.92
2022-12-06T15:42:36.109Z,4.86
2022-12-06T15:45:03.731Z,4.82
2022-12-06T15:47:31.576Z,4.79
2022-12-06T15:49:58.928Z,4.76
2022-12-06T15:52:27.551Z,4.76
2022-12-06T15:54:54.876Z,4.76
2022-12-06T15:57:22.547Z,4.76
2022-12-06T15:59:49.815Z,4.76
2022-12-06T16:02:18.451Z,4.76
2022-12-06T16:04:50.504Z,4.76
2022-12-06T16:07:19.329Z,4.76
2022-12-06T16:09:47.532Z,4.75
2022-12-06T16:12:14.794Z,4.74
2022-12-06T16:14:42.575Z,4.71
2022-12-06T16:17:09.754Z,4.66
2022-12-06T16:19:55.596Z,4.63
2022-12-06T16:22:42.814Z,4.61
2022-12-06T16:25:10.092Z,4.57
2022-12-06T16:27:37.372Z,4.55
2022-12-06T16:30:06.173Z,4.54
2022-12-06T16:32:33.538Z,4.54
2022-12-06T16:35:01.090Z,4.53
2022-12-06T16:37:28.525Z,4.52
2022-12-06T16:39:55.790Z,4.52
2022-12-06T16:42:23.057Z,4.52
2022-12-06T16:44:53.213Z,4.52
2022-12-06T16:49:48.828Z,4.51
2022-12-06T16:52:17.228Z,4.46
2022-12-06T16:54:44.826Z,4.43
2022-12-06T16:57:13.074Z,4.38
2022-12-06T16:59:42.434Z,4.37
2022-12-06T17:02:32.361Z,4.34
2022-12-06T17:05:02.244Z,4.32
2022-12-06T17:07:30.032Z,4.28
2022-12-06T17:10:00.122Z,4.24
2022-12-06T17:12:27.875Z,4.21
2022-12-06T17:14:55.179Z,4.18
2022-12-06T17:17:22.998Z,4.14
2022-12-06T17:19:50.827Z,4.09
2022-12-06T17:22:19.437Z,4.03
2022-12-06T17:24:48.599Z,4.00
2022-12-06T17:27:16.901Z,3.95
2022-12-06T17:29:44.499Z,3.91
2022-12-06T17:32:12.359Z,3.86
2022-12-06T17:34:39.752Z,3.79
2022-12-06T17:37:07.350Z,3.76
2022-12-06T17:39:35.380Z,3.74
2022-12-06T17:42:21.928Z,3.71
2022-12-06T17:44:51.195Z,3.69
2022-12-06T17:47:19.170Z,3.66
2022-12-06T17:49:46.633Z,3.63
2022-12-06T17:52:14.133Z,3.62
2022-12-06T17:54:41.538Z,3.61
2022-12-06T17:57:15.470Z,3.57
2022-12-06T17:59:42.900Z,3.54
2022-12-06T18:02:17.665Z,3.53
2022-12-06T18:04:47.414Z,3.50
2022-12-06T18:07:16.087Z,3.48
2022-12-06T18:09:44.026Z,3.44
2022-12-06T18:12:13.364Z,3.43
2022-12-06T18:14:40.644Z,3.41
2022-12-06T18:17:08.323Z,3.40
2022-12-06T18:19:35.868Z,3.37
2022-12-06T18:22:03.971Z,3.36
2022-12-06T18:24:35.431Z,3.38
2022-12-06T18:27:07.005Z,3.41
2022-12-06T18:29:34.720Z,3.44
2022-12-06T18:32:03.414Z,3.45
2022-12-06T18:34:31.167Z,3.49
2022-12-06T18:37:02.434Z,3.54
2022-12-06T18:39:30.888Z,3.56
2022-12-06T18:41:58.857Z,3.60
2022-12-06T18:44:26.208Z,3.63
2022-12-06T18:46:53.598Z,3.66
2022-12-06T18:49:21.016Z,3.69
2022-12-06T18:51:48.480Z,3.71
2022-12-06T18:54:15.843Z,3.74
2022-12-06T18:56:43.455Z,3.76
2022-12-06T18:59:11.836Z,3.78
2022-12-06T19:01:40.084Z,3.80
2022-12-06T19:04:09.421Z,3.82
2022-12-06T19:06:38.292Z,3.85
2022-12-06T19:09:13.190Z,3.88
2022-12-06T19:11:42.901Z,3.93
2022-12-06T19:14:10.599Z,3.95
2022-12-06T19:16:47.214Z,3.97
2022-12-06T19:19:18.110Z,3.98
2022-12-06T19:21:46.863Z,3.98
2022-12-06T19:24:17.266Z,3.99
2022-12-06T19:26:46.871Z,4.02
2022-12-06T19:29:15.530Z,4.02
2022-12-06T19:31:44.380Z,4.05
2022-12-06T19:34:16.855Z,4.07
2022-12-06T19:36:44.285Z,4.08
2022-12-06T19:39:13.901Z,4.07
2022-12-06T19:42:00.219Z,4.08
2022-12-06T19:44:28.804Z,4.07
2022-12-06T19:46:56.949Z,4.05
2022-12-06T19:49:27.668Z,4.03
2022-12-06T19:51:54.965Z,4.00
2022-12-06T19:54:30.625Z,3.97
2022-12-06T19:56:59.692Z,3.94
2022-12-06T19:59:30.146Z,3.92
2022-12-06T20:02:00.740Z,3.90
2022-12-06T20:04:31.689Z,3.90
2022-12-06T20:06:59.273Z,3.90
2022-12-06T20:09:30.285Z,3.89
2022-12-06T20:12:03.019Z,3.89
2022-12-06T20:14:42.451Z,3.88
2022-12-06T20:17:28.707Z,3.87
2022-12-06T20:19:56.928Z,3.88
2022-12-06T20:22:25.683Z,3.89
2022-12-06T20:24:53.165Z,3.92
2022-12-06T20:27:40.478Z,3.95
2022-12-06T20:30:08.467Z,3.97
2022-12-06T20:32:35.720Z,3.98
2022-12-06T20:35:03.101Z,4.00
2022-12-06T20:37:30.542Z,4.01
2022-12-06T20:39:57.804Z,4.03
2022-12-06T20:42:26.428Z,4.04
2022-12-06T20:44:53.622Z,4.05
2022-12-06T20:47:20.985Z,4.05
2022-12-06T20:49:48.264Z,4.05
2022-12-06T20:52:16.975Z,4.03
2022-12-06T20:54:44.425Z,4.01
2022-12-06T20:57:11.792Z,4.00
2022-12-06T20:59:39.285Z,3.98
2022-12-06T21:02:06.790Z,3.96
2022-12-06T21:04:34.563Z,3.96
2022-12-06T21:07:01.883Z,3.97
2022-12-06T21:09:30.583Z,3.97
2022-12-06T21:11:57.902Z,3.99
2022-12-06T21:14:25.176Z,3.98
2022-12-06T21:16:52.423Z,3.97
2022-12-06T21:19:19.780Z,3.95
2022-12-06T21:21:52.442Z,3.92
2022-12-06T21:24:21.646Z,3.88
2022-12-06T21:26:49.890Z,3.82
2022-12-06T21:29:21.685Z,3.79
2022-12-06T21:31:51.363Z,3.75
2022-12-06T21:34:19.078Z,3.70
2022-12-06T21:36:47.904Z,3.66
2022-12-06T21:39:15.196Z,3.62
2022-12-06T21:41:42.602Z,3.57
2022-12-06T21:44:09.990Z,3.51
2022-12-06T21:46:37.409Z,3.43
2022-12-06T21:49:04.841Z,3.38
2022-12-06T21:51:32.763Z,3.31
2022-12-06T21:54:01.567Z,3.25
2022-12-06T21:56:30.873Z,3.17
2022-12-06T21:59:00.202Z,3.09
2022-12-06T22:01:29.624Z,3.03
2022-12-06T22:04:01.083Z,2.96
2022-12-06T22:06:28.458Z,2.89
2022-12-06T22:09:05.798Z,2.85
2022-12-06T22:11:33.945Z,2.81
2022-12-06T22:14:02.366Z,2.80
2022-12-06T22:16:36.172Z,2.79
2022-12-06T22:19:04.181Z,2.77
2022-12-06T22:21:32.217Z,2.69
2022-12-06T22:24:00.855Z,2.64
2022-12-06T22:26:32.285Z,2.64
2022-12-06T22:29:00.369Z,2.61
2022-12-06T22:31:33.583Z,2.55
2022-12-06T22:34:02.070Z,2.52
2022-12-06T22:36:31.524Z,2.47
2022-12-06T22:39:01.296Z,2.42
2022-12-06T22:41:29.886Z,2.37
2022-12-06T22:44:02.887Z,2.32
2022-12-06T22:46:32.267Z,2.29
2022-12-06T22:49:01.146Z,2.28
2022-12-06T22:51:31.450Z,2.28
2022-12-06T22:54:02.101Z,2.27
2022-12-06T22:56:31.687Z,2.28
2022-12-06T22:59:00.430Z,2.29
2022-12-06T23:01:31.671Z,2.29
2022-12-06T23:04:01.550Z,2.30
2022-12-06T23:06:30.014Z,2.31
2022-12-06T23:08:57.782Z,2.30
2022-12-06T23:11:28.121Z,2.31
2022-12-06T23:13:56.405Z,2.31
2022-12-06T23:16:29.706Z,2.31
2022-12-06T23:18:58.759Z,2.32
2022-12-06T23:21:32.137Z,2.31
2022-12-06T23:24:02.242Z,2.31
2022-12-06T23:26:35.396Z,2.29
2022-12-06T23:29:03.712Z,2.27
2022-12-06T23:31:36.845Z,2.25
2022-12-06T23:34:07.224Z,2.23
2022-12-06T23:36:37.065Z,2.21
2022-12-06T23:39:06.026Z,2.20
2022-12-06T23:41:34.619Z,2.22
2022-12-06T23:44:03.568Z,2.27
2022-12-06T23:46:34.192Z,2.29
2022-12-06T23:49:02.391Z,2.35
2022-12-06T23:51:40.181Z,2.36
2022-12-06T23:54:08.198Z,2.41
2022-12-06T23:56:38.944Z,2.44
2022-12-06T23:59:07.165Z,2.48
